Aérodrome :
LOGIN :

S'inscrire | Disclaimer

   EN    FR    IT 

 










Légende :    VFR   VFR Marginal   IFR   IFR Intensif   IFR Très Intensif
Visi : 
Plafond : 
>= 8 km
>= 3000ft
5 à 8 km
1000 à 3000 ft
1500m à 5 km
500 à 1000 ft
800 à 1500m
200 à 500 ft
< 800m
< 200 ft
Symboles :   Orages  Brouillard  Fortes neiges  Fortes précipitations  Vent > 20 kt
SIGMETs :   Divers  Orages  Givrage  Turbulence  Onde Orograph.  Cendres Volcan.







- Altitude de l'aérodrome : 162 ft
- Code IATA : BOD
- Voir les cartes d'approche


LFBD - Bordeaux / Merignac

DERNIER METAR :
  • 210430Z AUTO 29014KT 4500 -RA BR OVC005/// ///TCU 13/12 Q1021 TEMPO 30015G25KT OVC005 BECMG RADZ

METARs EXPIRÉS :
  • 210400Z AUTO 29015KT 7000 DZ OVC005 13/13 Q1021 TEMPO 30015G25KT 3500
  • 210330Z AUTO 29016KT 9000 DZ OVC006 13/12 Q1021 TEMPO 30015G25KT 3500
  • 210300Z AUTO 29015KT 5000 DZ BR OVC006 13/13 Q1021 TEMPO 30015G25KT BECMG RADZ
  • 210230Z AUTO 29017KT 6000 -DZ OVC006 13/13 Q1021 TEMPO 30015G25KT 3500
  • 210200Z AUTO 29015KT 4600 DZ BR OVC006 13/13 Q1021 TEMPO 30015G25KT BECMG RADZ

TAF AMD TAF LFBD
Valide du 21 à 00h jusqu'au 22 à 06h UTC


202317Z 2100/2206 30015KT 6000 RADZ OVC010
TEMPO 2100/2206 30015G25KT
TEMPO 2100/2110 3500 OVC005
BECMG 2113/2115 NSW OVC015
TEMPO 2113/2206 4000 RADZ BKN008 TX13/2112Z TN11/2200Z
ATIS : +33 5 57 92 81 04
Pas de NOTAMs connus pour ce terrain.
1 SIGMET publié pour la FIR Bordeaux (LFBB) :
 
Onde orographique forte
LFBB SIGMET 1 VALID 210300/210700 LFPW
LFBB BORDEAUX FIR/UIR SEV MTW FCST WI N4245 E00230 - N4215 E00230 - N4245 E00000 - N4300 E00000 - N4245 E00230 SFC/FL350 STNR NC=



MET'MAP, la Météo Aéronautique d'un coup d'oeil ! - Copyright ORBIFLY Décembre 2007 - Disclaimer

ORBIFLY MET'MAP TEAM :

Programmation & Développement : Alexandra Zaïnal
Conception & Développement : Baudouin d'Aumeries
Co-Programmation & Développement : Marc-Olivier Méhu
Soutien technique & logistique : Manuel Goepfert

Contact : metmap@orbifly.com




SOURCES & CREDITS :

   NOAA